createdAt,value
2019-01-02T00:01:15.530Z,3.70
2019-01-02T00:03:44.926Z,3.70
2019-01-02T00:06:14.462Z,3.80
2019-01-02T00:08:43.966Z,3.90
2019-01-02T00:11:13.396Z,4.00
2019-01-02T00:13:42.992Z,4.00
2019-01-02T00:16:12.462Z,4.00
2019-01-02T00:18:42.186Z,4.10
2019-01-02T00:21:11.634Z,4.10
2019-01-02T00:23:41.078Z,4.20
2019-01-02T00:26:10.508Z,4.20
2019-01-02T00:28:39.994Z,4.30
2019-01-02T00:31:09.844Z,4.30
2019-01-02T00:33:39.338Z,4.30
2019-01-02T00:36:09.158Z,4.30
2019-01-02T00:38:38.606Z,4.40
2019-01-02T00:41:08.687Z,4.50
2019-01-02T00:43:38.100Z,4.40
2019-01-02T00:46:07.826Z,4.30
2019-01-02T00:48:37.224Z,4.20
2019-01-02T00:51:06.681Z,4.10
2019-01-02T00:53:36.110Z,4.10
2019-01-02T00:56:07.859Z,4.10
2019-01-02T00:58:37.281Z,4.10
2019-01-02T01:01:06.717Z,4.10
2019-01-02T01:03:36.122Z,4.20
2019-01-02T01:06:05.999Z,4.10
2019-01-02T01:08:35.398Z,4.20
2019-01-02T01:11:05.243Z,4.20
2019-01-02T01:13:34.647Z,4.10
2019-01-02T01:16:04.394Z,4.10
2019-01-02T01:18:33.812Z,4.20
2019-01-02T01:21:03.644Z,4.10
2019-01-02T01:23:33.131Z,4.10
2019-01-02T01:26:02.541Z,4.10
2019-01-02T01:28:32.382Z,4.10
2019-01-02T01:31:01.781Z,4.10
2019-01-02T01:33:31.234Z,4.10
2019-01-02T01:36:00.632Z,4.20
2019-01-02T01:38:30.114Z,4.20
2019-01-02T01:40:59.823Z,4.20
2019-01-02T01:43:29.215Z,4.10
2019-01-02T01:45:58.698Z,4.10
2019-01-02T01:48:28.664Z,4.10
2019-01-02T01:50:58.134Z,4.20
2019-01-02T01:53:27.526Z,4.20
2019-01-02T01:55:56.972Z,4.20
2019-01-02T01:58:26.372Z,4.30
2019-01-02T02:00:56.198Z,4.30
2019-01-02T02:03:25.584Z,4.20
2019-01-02T02:05:54.980Z,4.30
2019-01-02T02:08:24.695Z,4.30
2019-01-02T02:10:54.088Z,4.30
2019-01-02T02:13:23.514Z,4.30
2019-01-02T02:15:52.904Z,4.30
2019-01-02T02:18:22.283Z,4.30
2019-01-02T02:20:52.168Z,4.30
2019-01-02T02:23:21.693Z,4.30
2019-01-02T02:25:51.082Z,4.30
2019-01-02T02:28:20.530Z,4.20
2019-01-02T02:30:49.967Z,4.20
2019-01-02T02:33:19.745Z,4.20
2019-01-02T02:35:49.670Z,4.30
2019-01-02T02:38:19.468Z,4.30
2019-01-02T02:40:49.194Z,4.30
2019-01-02T02:43:18.578Z,4.30
2019-01-02T02:45:48.158Z,4.30
2019-01-02T02:48:17.962Z,4.40
2019-01-02T02:50:47.855Z,4.40
2019-01-02T02:53:17.595Z,4.40
2019-01-02T02:55:48.027Z,4.30
2019-01-02T02:58:17.873Z,4.30
2019-01-02T03:00:47.485Z,4.30
2019-01-02T03:03:17.229Z,4.30
2019-01-02T03:05:46.653Z,4.30
2019-01-02T03:08:16.108Z,4.20
2019-01-02T03:10:45.994Z,4.20
2019-01-02T03:13:15.901Z,4.10
2019-01-02T03:15:45.829Z,4.10
2019-01-02T03:18:15.448Z,4.10
2019-01-02T03:20:44.873Z,4.00
2019-01-02T03:23:14.373Z,4.00
2019-01-02T03:25:44.305Z,4.00
2019-01-02T03:28:14.014Z,4.00
2019-01-02T03:30:43.814Z,4.10
2019-01-02T03:33:13.606Z,4.00
2019-01-02T03:35:42.933Z,4.00
2019-01-02T03:38:12.290Z,4.00
2019-01-02T03:40:41.604Z,4.00
2019-01-02T03:43:10.958Z,4.00
2019-01-02T03:45:40.336Z,4.00
2019-01-02T03:48:09.852Z,4.00
2019-01-02T03:50:39.237Z,3.90
2019-01-02T03:53:08.642Z,3.90
2019-01-02T03:55:37.954Z,4.00
2019-01-02T03:58:07.339Z,3.90
2019-01-02T04:00:37.649Z,3.90
2019-01-02T04:03:07.046Z,3.90
2019-01-02T04:05:37.982Z,3.80
2019-01-02T04:08:09.950Z,3.80
2019-01-02T04:10:39.330Z,3.80
2019-01-02T04:13:08.690Z,3.80
2019-01-02T04:15:38.012Z,3.80
2019-01-02T04:18:07.452Z,3.80
2019-01-02T04:20:36.780Z,3.90
2019-01-02T04:23:06.226Z,3.90
2019-01-02T04:25:35.558Z,3.90
2019-01-02T04:28:04.980Z,4.00
2019-01-02T04:30:35.910Z,4.00
2019-01-02T04:33:05.362Z,3.90
2019-01-02T04:35:34.682Z,3.90
2019-01-02T04:38:04.039Z,3.90
2019-01-02T04:40:33.388Z,3.80
2019-01-02T04:43:02.994Z,3.70
2019-01-02T04:45:32.350Z,3.70
2019-01-02T04:48:01.659Z,3.60
2019-01-02T04:50:31.070Z,3.50
2019-01-02T04:53:00.396Z,3.60
2019-01-02T04:55:29.842Z,3.60
2019-01-02T04:57:59.156Z,3.60
2019-01-02T05:00:28.500Z,3.60
2019-01-02T05:02:57.863Z,3.60
2019-01-02T05:05:27.228Z,3.60
2019-01-02T05:07:56.602Z,3.70
2019-01-02T05:10:25.932Z,3.60
2019-01-02T05:12:55.375Z,3.60
2019-01-02T05:15:25.011Z,3.70
2019-01-02T05:17:54.722Z,3.70
2019-01-02T05:20:25.646Z,3.70
2019-01-02T05:22:55.352Z,3.70
2019-01-02T05:25:24.835Z,3.70
2019-01-02T05:27:54.470Z,3.70
2019-01-02T05:30:23.928Z,3.70
2019-01-02T05:32:53.429Z,3.60
2019-01-02T05:35:22.862Z,3.60
2019-01-02T05:37:52.348Z,3.60
2019-01-02T05:40:24.365Z,3.50
2019-01-02T05:42:53.814Z,3.50
2019-01-02T05:45:23.325Z,3.40
2019-01-02T05:47:52.881Z,3.30
2019-01-02T05:50:22.458Z,3.30
2019-01-02T05:52:51.852Z,3.20
2019-01-02T05:55:21.377Z,3.10
2019-01-02T05:57:50.829Z,3.10
2019-01-02T06:00:20.447Z,3.00
2019-01-02T06:02:49.856Z,3.00
2019-01-02T06:05:19.235Z,3.10
2019-01-02T06:07:48.760Z,3.10
2019-01-02T06:10:18.207Z,3.20
2019-01-02T06:12:47.656Z,3.30
2019-01-02T06:15:17.764Z,3.30
2019-01-02T06:17:47.303Z,3.30
2019-01-02T06:20:18.151Z,3.30
2019-01-02T06:22:47.498Z,3.40
2019-01-02T06:25:16.862Z,3.40
2019-01-02T06:27:46.202Z,3.40
2019-01-02T06:30:15.573Z,3.30
2019-01-02T06:32:44.974Z,3.30
2019-01-02T06:35:14.377Z,3.30
2019-01-02T06:37:43.838Z,3.30
2019-01-02T06:40:13.981Z,3.30
2019-01-02T06:42:43.415Z,3.30
2019-01-02T06:45:17.863Z,3.30
2019-01-02T06:47:47.304Z,3.30
2019-01-02T06:50:19.968Z,3.30
2019-01-02T06:52:49.367Z,3.30
2019-01-02T06:55:18.826Z,3.30
2019-01-02T06:57:48.341Z,3.30
2019-01-02T07:00:38.930Z,3.40
2019-01-02T07:03:08.327Z,3.50
2019-01-02T07:05:37.701Z,3.40
2019-01-02T07:08:07.005Z,3.50
2019-01-02T07:10:36.399Z,3.50
2019-01-02T07:13:05.711Z,3.40
2019-01-02T07:15:35.121Z,3.40
2019-01-02T07:18:04.534Z,3.40
2019-01-02T07:20:33.869Z,3.40
2019-01-02T07:23:03.353Z,3.40
2019-01-02T07:25:32.717Z,3.40
2019-01-02T07:28:02.941Z,3.40
2019-01-02T07:30:32.275Z,3.40
2019-01-02T07:33:02.361Z,3.50
2019-01-02T07:36:23.321Z,3.50
2019-01-02T07:39:45.829Z,3.40
2019-01-02T07:42:53.418Z,3.40
2019-01-02T07:45:55.479Z,3.40
2019-01-02T07:49:00.517Z,3.40
2019-01-02T07:52:02.934Z,3.50
2019-01-02T07:55:14.269Z,3.50
2019-01-02T07:58:39.701Z,3.50
2019-01-02T08:01:53.589Z,3.50
2019-01-02T08:05:01.935Z,3.50
2019-01-02T08:08:15.219Z,3.50
2019-01-02T08:11:14.409Z,3.50
2019-01-02T08:14:35.145Z,3.50
2019-01-02T08:18:03.325Z,3.50
2019-01-02T08:21:24.473Z,3.50
2019-01-02T08:24:40.976Z,3.50
2019-01-02T08:27:33.308Z,3.50
2019-01-02T08:30:27.050Z,3.60
2019-01-02T08:33:38.691Z,3.60
2019-01-02T08:36:55.058Z,3.60
2019-01-02T08:39:52.963Z,3.70
2019-01-02T08:42:52.780Z,3.60
2019-01-02T08:45:48.643Z,3.60
2019-01-02T08:49:13.256Z,3.60
2019-01-02T08:52:20.051Z,3.60
2019-01-02T08:55:17.332Z,3.60
2019-01-02T08:58:34.039Z,3.60
2019-01-02T09:01:36.154Z,3.50
2019-01-02T09:04:36.418Z,3.50
2019-01-02T09:07:49.782Z,3.50
2019-01-02T09:10:59.843Z,3.50
2019-01-02T09:14:09.452Z,3.60
2019-01-02T09:17:10.561Z,3.80
2019-01-02T09:20:11.270Z,3.90
2019-01-02T09:23:16.402Z,4.00
2019-01-02T09:26:39.314Z,4.10
2019-01-02T09:30:16.631Z,4.10
2019-01-02T09:33:45.368Z,4.20
2019-01-02T09:36:51.749Z,4.30
2019-01-02T09:39:51.306Z,4.40
2019-01-02T09:43:13.858Z,4.50
2019-01-02T09:46:39.573Z,4.60
2019-01-02T09:49:58.353Z,4.60
2019-01-02T09:52:55.850Z,4.70
2019-01-02T09:55:35.530Z,4.70
2019-01-02T09:59:05.245Z,4.60
2019-01-02T10:02:12.208Z,4.60
2019-01-02T10:05:24.306Z,4.50
2019-01-02T10:08:31.297Z,4.60
2019-01-02T10:11:45.090Z,4.70
2019-01-02T10:15:09.614Z,4.70
2019-01-02T10:18:07.219Z,4.60
2019-01-02T10:21:38.617Z,4.60
2019-01-02T10:24:28.085Z,4.60
2019-01-02T10:27:56.781Z,4.60
2019-01-02T10:31:04.581Z,4.70
2019-01-02T10:34:12.369Z,4.80
2019-01-02T10:37:22.947Z,4.90
2019-01-02T10:40:36.453Z,4.90
2019-01-02T10:43:21.713Z,4.90
2019-01-02T10:46:05.586Z,4.80
2019-01-02T10:49:20.516Z,4.90
2019-01-02T10:52:49.443Z,4.80
2019-01-02T10:56:12.785Z,4.80
2019-01-02T10:59:19.011Z,4.80
2019-01-02T11:02:31.251Z,4.70
2019-01-02T11:05:30.785Z,4.70
2019-01-02T11:08:41.335Z,4.60
2019-01-02T11:11:46.359Z,4.60
2019-01-02T11:14:38.901Z,4.60
2019-01-02T11:17:46.019Z,4.50
2019-01-02T11:21:12.807Z,4.50
2019-01-02T11:24:19.091Z,4.50
2019-01-02T11:27:23.794Z,4.40
2019-01-02T11:30:18.749Z,4.30
2019-01-02T11:33:39.808Z,4.30
2019-01-02T11:36:30.465Z,4.20
2019-01-02T11:39:38.013Z,4.10
2019-01-02T11:42:36.821Z,4.20
2019-01-02T11:45:10.748Z,4.30
2019-01-02T11:47:40.054Z,4.30
2019-01-02T11:50:11.925Z,4.30
2019-01-02T11:52:41.234Z,4.20
2019-01-02T11:55:10.654Z,4.00
2019-01-02T11:57:39.976Z,3.40
2019-01-02T12:00:15.239Z,3.20
2019-01-02T12:02:44.560Z,3.10
2019-01-02T12:05:13.907Z,3.10
2019-01-02T12:07:43.352Z,3.10
2019-01-02T12:10:14.068Z,3.20
2019-01-02T12:12:43.517Z,3.30
2019-01-02T12:15:12.918Z,3.40
2019-01-02T12:17:42.278Z,3.40
2019-01-02T12:20:12.109Z,3.50
2019-01-02T12:22:41.496Z,3.50
2019-01-02T12:25:10.933Z,3.50
2019-01-02T12:27:40.317Z,3.50
2019-01-02T12:30:14.798Z,3.60
2019-01-02T12:32:44.107Z,3.60
2019-01-02T12:35:13.715Z,3.70
2019-01-02T12:37:43.162Z,3.80
2019-01-02T12:40:12.613Z,3.80
2019-01-02T12:42:42.018Z,3.90
2019-01-02T12:45:11.377Z,3.90
2019-01-02T12:47:40.735Z,4.10
2019-01-02T12:50:10.606Z,4.20
2019-01-02T12:52:40.459Z,4.20
2019-01-02T12:55:09.950Z,4.20
2019-01-02T12:57:39.361Z,4.20
2019-01-02T13:00:13.839Z,4.00
2019-01-02T13:03:27.155Z,4.00
2019-01-02T13:06:40.012Z,3.90
2019-01-02T13:09:28.069Z,3.90
2019-01-02T13:12:57.054Z,3.80
2019-01-02T13:15:57.786Z,3.70
2019-01-02T13:19:08.459Z,3.80
2019-01-02T13:22:36.873Z,3.70
2019-01-02T13:25:42.110Z,3.70
2019-01-02T13:28:51.509Z,3.70
2019-01-02T13:31:50.838Z,3.60
2019-01-02T13:35:03.018Z,3.60
2019-01-02T13:38:19.473Z,3.60
2019-01-02T13:41:35.478Z,3.60
2019-01-02T13:44:27.182Z,3.60
2019-01-02T13:47:25.345Z,3.60
2019-01-02T13:50:28.847Z,3.60
2019-01-02T13:52:59.862Z,3.50
2019-01-02T13:55:29.250Z,3.50
2019-01-02T13:57:58.677Z,3.40
2019-01-02T14:00:28.055Z,3.30
2019-01-02T14:02:57.429Z,3.30
2019-01-02T14:05:26.738Z,3.20
2019-01-02T14:07:56.158Z,3.30
2019-01-02T14:10:25.785Z,3.20
2019-01-02T14:12:57.556Z,3.10
2019-01-02T14:15:26.943Z,3.10
2019-01-02T14:17:56.906Z,3.00
2019-01-02T14:20:26.308Z,2.90
2019-01-02T14:22:55.753Z,2.80
2019-01-02T14:25:25.117Z,2.80
2019-01-02T14:27:54.469Z,2.70
2019-01-02T14:30:23.826Z,2.70
2019-01-02T14:32:53.230Z,2.60
2019-01-02T14:35:22.674Z,2.50
2019-01-02T14:37:52.041Z,2.40
2019-01-02T14:40:21.515Z,2.40
2019-01-02T14:42:50.848Z,2.40
2019-01-02T14:45:20.290Z,2.40
2019-01-02T14:47:49.683Z,2.30
2019-01-02T14:50:19.063Z,2.30
2019-01-02T14:52:49.550Z,2.30
2019-01-02T14:55:19.005Z,2.20
2019-01-02T14:57:48.361Z,2.20
2019-01-02T15:00:17.792Z,2.20
2019-01-02T15:02:48.080Z,2.20
2019-01-02T15:05:17.492Z,2.30
2019-01-02T15:07:46.897Z,2.30
2019-01-02T15:10:16.323Z,2.30
2019-01-02T15:12:45.789Z,2.30
2019-01-02T15:15:15.114Z,2.30
2019-01-02T15:17:44.916Z,2.30
2019-01-02T15:20:14.315Z,2.30
2019-01-02T15:22:44.172Z,2.30
2019-01-02T15:25:13.631Z,2.30
2019-01-02T15:27:44.496Z,2.20
2019-01-02T15:30:14.221Z,2.20
2019-01-02T15:32:43.650Z,2.20
2019-01-02T15:35:13.121Z,2.20
2019-01-02T15:37:42.555Z,2.30
2019-01-02T15:40:12.343Z,2.30
2019-01-02T15:42:43.275Z,2.30
2019-01-02T15:45:12.765Z,2.30
2019-01-02T15:47:42.702Z,2.20
2019-01-02T15:50:12.725Z,2.20
2019-01-02T15:52:42.453Z,2.20
2019-01-02T15:55:11.939Z,2.20
2019-01-02T15:57:41.329Z,2.10
2019-01-02T16:00:13.329Z,2.10
2019-01-02T16:02:43.165Z,2.10
2019-01-02T16:05:12.571Z,2.20
2019-01-02T16:07:41.942Z,2.20
2019-01-02T16:10:11.821Z,2.20
2019-01-02T16:12:46.096Z,2.20
2019-01-02T16:15:12.440Z,2.20
2019-01-02T16:17:41.945Z,2.20
2019-01-02T16:20:12.287Z,2.20
2019-01-02T16:22:42.019Z,2.20
2019-01-02T16:25:11.701Z,2.20
2019-01-02T16:27:41.520Z,2.20
2019-01-02T16:30:11.283Z,2.20
2019-01-02T16:32:40.661Z,2.20
2019-01-02T16:35:09.969Z,2.20
2019-01-02T16:37:39.381Z,2.20
2019-01-02T16:40:11.478Z,2.30
2019-01-02T16:42:41.050Z,2.20
2019-01-02T16:45:10.556Z,2.20
2019-01-02T16:47:39.975Z,2.20
2019-01-02T16:50:10.434Z,2.20
2019-01-02T16:52:39.773Z,2.20
2019-01-02T16:55:09.213Z,2.20
2019-01-02T16:57:38.808Z,2.20
2019-01-02T17:00:11.022Z,2.20
2019-01-02T17:02:40.414Z,2.20
2019-01-02T17:05:09.853Z,2.20
2019-01-02T17:07:39.313Z,2.30
2019-01-02T17:10:10.814Z,2.30
2019-01-02T17:12:40.219Z,2.30
2019-01-02T17:15:09.729Z,2.30
2019-01-02T17:17:39.097Z,2.30
2019-01-02T17:20:09.157Z,2.30
2019-01-02T17:22:38.575Z,2.30
2019-01-02T17:25:09.244Z,2.30
2019-01-02T17:27:38.722Z,2.30
2019-01-02T17:30:08.674Z,2.30
2019-01-02T17:32:38.109Z,2.30
2019-01-02T17:35:07.445Z,2.30
2019-01-02T17:37:38.390Z,2.30
2019-01-02T17:40:08.836Z,2.30
2019-01-02T17:42:38.494Z,2.20
2019-01-02T17:45:10.431Z,2.20
2019-01-02T17:47:39.753Z,2.20
2019-01-02T17:50:11.203Z,2.20
2019-01-02T17:52:40.650Z,2.20
2019-01-02T17:55:10.141Z,2.20
2019-01-02T17:57:39.649Z,2.20
2019-01-02T18:00:11.860Z,2.20
2019-01-02T18:02:41.501Z,2.20
2019-01-02T18:05:11.055Z,2.20
2019-01-02T18:07:40.429Z,2.20
2019-01-02T18:10:10.595Z,2.10
2019-01-02T18:12:40.131Z,2.10
2019-01-02T18:15:09.729Z,2.10
2019-01-02T18:17:39.486Z,2.10
2019-01-02T18:20:10.550Z,2.00
2019-01-02T18:22:39.954Z,2.10
2019-01-02T18:25:09.632Z,2.00
2019-01-02T18:27:39.698Z,2.10
2019-01-02T18:30:11.450Z,2.00
2019-01-02T18:32:41.154Z,1.90
2019-01-02T18:35:10.536Z,1.90
2019-01-02T18:37:39.942Z,1.80
2019-01-02T18:40:10.850Z,1.80
2019-01-02T18:42:40.176Z,1.80
2019-01-02T18:45:09.624Z,1.80
2019-01-02T18:47:39.110Z,1.70
2019-01-02T18:50:10.634Z,1.70
2019-01-02T18:52:40.156Z,1.60
2019-01-02T18:55:09.737Z,1.60
2019-01-02T18:57:39.368Z,1.60
2019-01-02T19:00:11.736Z,1.50
2019-01-02T19:02:41.150Z,1.50
2019-01-02T19:05:10.656Z,1.50
2019-01-02T19:07:40.562Z,1.50
2019-01-02T19:10:10.014Z,1.50
2019-01-02T19:12:39.538Z,1.50
2019-01-02T19:15:09.517Z,1.50
2019-01-02T19:17:39.112Z,1.50
2019-01-02T19:20:08.724Z,1.50
2019-01-02T19:22:38.213Z,1.50
2019-01-02T19:25:08.402Z,1.50
2019-01-02T19:27:38.171Z,1.50
2019-01-02T19:30:09.180Z,1.60
2019-01-02T19:32:38.716Z,1.60
2019-01-02T19:35:08.266Z,1.60
2019-01-02T19:37:37.750Z,1.60
2019-01-02T19:40:11.956Z,1.50
2019-01-02T19:42:41.435Z,1.50
2019-01-02T19:45:11.202Z,1.60
2019-01-02T19:47:40.780Z,1.50
2019-01-02T19:50:10.306Z,1.50
2019-01-02T19:52:39.830Z,1.50
2019-01-02T19:55:10.101Z,1.50
2019-01-02T19:57:40.009Z,1.50
2019-01-02T20:00:11.274Z,1.50
2019-01-02T20:02:40.882Z,1.50
2019-01-02T20:05:10.545Z,1.40
2019-01-02T20:07:40.201Z,1.40
2019-01-02T20:10:10.627Z,1.30
2019-01-02T20:12:40.270Z,1.30
2019-01-02T20:15:12.403Z,1.20
2019-01-02T20:17:41.874Z,1.20
2019-01-02T20:20:13.301Z,1.10
2019-01-02T20:22:42.794Z,0.80
2019-01-02T20:25:12.535Z,0.70
2019-01-02T20:27:42.130Z,0.60
2019-01-02T20:30:13.797Z,0.50
2019-01-02T20:32:43.342Z,0.40
2019-01-02T20:35:13.114Z,0.40
2019-01-02T20:37:43.016Z,0.40
2019-01-02T20:40:12.470Z,0.40
2019-01-02T20:42:41.977Z,0.40
2019-01-02T20:45:11.568Z,0.60
2019-01-02T20:47:41.414Z,0.70
2019-01-02T20:50:11.214Z,0.80
2019-01-02T20:52:41.084Z,0.90
2019-01-02T20:55:10.823Z,0.80
2019-01-02T20:57:40.394Z,0.80
2019-01-02T21:00:16.837Z,0.80
2019-01-02T21:02:46.381Z,0.70
2019-01-02T21:05:15.854Z,0.60
2019-01-02T21:07:47.196Z,0.60
2019-01-02T21:10:16.287Z,0.50
2019-01-02T21:12:45.799Z,0.50
2019-01-02T21:15:15.253Z,0.50
2019-01-02T21:17:44.878Z,0.50
2019-01-02T21:20:14.194Z,0.50
2019-01-02T21:22:43.630Z,0.50
2019-01-02T21:25:13.085Z,0.50
2019-01-02T21:27:42.429Z,0.40
2019-01-02T21:30:12.130Z,0.40
2019-01-02T21:32:41.561Z,0.40
2019-01-02T21:35:10.918Z,0.40
2019-01-02T21:37:40.570Z,0.30
2019-01-02T21:40:10.538Z,0.30
2019-01-02T21:42:40.329Z,0.30
2019-01-02T21:45:09.694Z,0.20
2019-01-02T21:47:39.065Z,0.20
2019-01-02T21:50:09.065Z,0.30
2019-01-02T21:52:39.161Z,0.20
2019-01-02T21:55:08.544Z,0.20
2019-01-02T21:57:38.037Z,0.20
2019-01-02T22:00:10.533Z,0.10
2019-01-02T22:02:40.350Z,0.10
2019-01-02T22:05:10.117Z,0.10
2019-01-02T22:07:39.459Z,0.00
2019-01-02T22:10:09.498Z,0.00
2019-01-02T22:12:38.857Z,0.00
2019-01-02T22:15:10.062Z,0.00
2019-01-02T22:17:40.481Z,0.00
2019-01-02T22:20:10.145Z,0.00
2019-01-02T22:22:39.615Z,0.00
2019-01-02T22:25:09.035Z,0.00
2019-01-02T22:27:38.516Z,0.00
2019-01-02T22:30:09.049Z,0.00
2019-01-02T22:32:38.353Z,0.00
2019-01-02T22:35:07.989Z,0.00
2019-01-02T22:37:37.393Z,0.00
2019-01-02T22:40:07.833Z,0.00
2019-01-02T22:42:37.136Z,0.00
2019-01-02T22:45:06.562Z,0.00
2019-01-02T22:47:35.953Z,0.10
2019-01-02T22:50:07.668Z,0.10
2019-01-02T22:52:36.994Z,0.20
2019-01-02T22:55:06.448Z,0.20
2019-01-02T22:57:35.771Z,0.20
2019-01-02T23:00:07.173Z,0.20
2019-01-02T23:02:49.733Z,0.30
2019-01-02T23:05:46.712Z,0.30
2019-01-02T23:08:37.869Z,0.20
2019-01-02T23:11:24.533Z,0.30
2019-01-02T23:14:24.742Z,0.20
2019-01-02T23:17:08.657Z,0.20
2019-01-02T23:19:56.935Z,0.20
2019-01-02T23:23:00.693Z,0.20
2019-01-02T23:26:07.087Z,0.10
2019-01-02T23:28:58.349Z,-0.20
2019-01-02T23:31:46.621Z,-0.50
2019-01-02T23:34:33.607Z,-0.70
2019-01-02T23:37:20.429Z,-0.90
2019-01-02T23:40:07.219Z,-1.00
2019-01-02T23:42:51.195Z,-1.30
2019-01-02T23:45:38.458Z,-1.30
2019-01-02T23:48:41.737Z,-1.50
2019-01-02T23:51:27.353Z,-1.50
2019-01-02T23:54:14.381Z,-1.60
2019-01-02T23:57:03.517Z,-1.60
2019-01-02T23:59:50.871Z,-1.60
